sensor_id;sensor_type;location;lat;lon;timestamp;noise_LAeq;noise_LA_min;noise_LA_max;noise_LA01;noise_LA95
66888;Laerm;67239;51.680;5.976;2023-02-28T00:01:30;35.10;31.46;41.79;;
66888;Laerm;67239;51.680;5.976;2023-02-28T00:03:58;54.72;31.87;72.09;;
66888;Laerm;67239;51.680;5.976;2023-02-28T00:06:26;35.28;32.39;40.62;;
66888;Laerm;67239;51.680;5.976;2023-02-28T00:08:53;36.06;32.66;43.69;;
66888;Laerm;67239;51.680;5.976;2023-02-28T00:11:20;61.88;32.68;79.25;;
66888;Laerm;67239;51.680;5.976;2023-02-28T00:13:47;63.03;31.25;82.01;;
66888;Laerm;67239;51.680;5.976;2023-02-28T00:16:20;41.67;32.95;57.13;;
66888;Laerm;67239;51.680;5.976;2023-02-28T00:18:48;36.38;32.85;42.65;;
66888;Laerm;67239;51.680;5.976;2023-02-28T00:21:17;34.88;31.88;53.75;;
66888;Laerm;67239;51.680;5.976;2023-02-28T00:23:44;34.39;31.94;36.87;;
66888;Laerm;67239;51.680;5.976;2023-02-28T00:26:12;59.00;31.76;77.60;;
66888;Laerm;67239;51.680;5.976;2023-02-28T00:28:43;38.12;32.13;49.76;;
66888;Laerm;67239;51.680;5.976;2023-02-28T00:31:10;35.57;32.01;44.91;;
66888;Laerm;67239;51.680;5.976;2023-02-28T00:33:37;34.15;31.63;43.16;;
66888;Laerm;67239;51.680;5.976;2023-02-28T00:36:10;34.50;31.73;38.88;;
66888;Laerm;67239;51.680;5.976;2023-02-28T00:38:39;34.22;31.53;36.45;;
66888;Laerm;67239;51.680;5.976;2023-02-28T00:41:08;37.36;32.77;46.98;;
66888;Laerm;67239;51.680;5.976;2023-02-28T00:43:38;35.76;32.54;40.19;;
66888;Laerm;67239;51.680;5.976;2023-02-28T00:46:06;57.94;33.65;77.31;;
66888;Laerm;67239;51.680;5.976;2023-02-28T00:48:33;35.14;32.38;37.97;;
66888;Laerm;67239;51.680;5.976;2023-02-28T00:51:00;43.55;31.38;61.92;;
66888;Laerm;67239;51.680;5.976;2023-02-28T00:53:29;63.85;32.09;84.86;;
66888;Laerm;67239;51.680;5.976;2023-02-28T00:55:57;35.06;32.17;39.36;;
66888;Laerm;67239;51.680;5.976;2023-02-28T00:58:25;35.25;32.31;39.28;;
66888;Laerm;67239;51.680;5.976;2023-02-28T01:00:53;34.83;31.61;40.28;;
66888;Laerm;67239;51.680;5.976;2023-02-28T01:03:21;40.06;33.31;58.54;;
66888;Laerm;67239;51.680;5.976;2023-02-28T01:05:50;63.67;33.19;83.22;;
66888;Laerm;67239;51.680;5.976;2023-02-28T01:08:17;35.47;33.21;40.98;;
66888;Laerm;67239;51.680;5.976;2023-02-28T01:10:44;58.49;33.29;77.77;;
66888;Laerm;67239;51.680;5.976;2023-02-28T01:13:12;53.50;33.76;70.31;;
66888;Laerm;67239;51.680;5.976;2023-02-28T01:15:49;36.52;32.62;53.17;;
66888;Laerm;67239;51.680;5.976;2023-02-28T01:18:19;59.91;32.83;78.15;;
66888;Laerm;67239;51.680;5.976;2023-02-28T01:20:47;39.85;33.73;51.86;;
66888;Laerm;67239;51.680;5.976;2023-02-28T01:23:15;35.45;32.47;39.58;;
66888;Laerm;67239;51.680;5.976;2023-02-28T01:25:42;35.20;32.37;41.21;;
66888;Laerm;67239;51.680;5.976;2023-02-28T01:28:10;35.03;32.11;43.82;;
66888;Laerm;67239;51.680;5.976;2023-02-28T01:30:37;34.84;32.17;47.60;;
66888;Laerm;67239;51.680;5.976;2023-02-28T01:33:05;58.66;32.99;79.24;;
66888;Laerm;67239;51.680;5.976;2023-02-28T01:35:34;35.91;32.33;51.55;;
66888;Laerm;67239;51.680;5.976;2023-02-28T01:38:02;34.25;31.83;37.13;;
66888;Laerm;67239;51.680;5.976;2023-02-28T01:40:47;35.23;31.89;39.97;;
66888;Laerm;67239;51.680;5.976;2023-02-28T01:43:28;35.62;32.50;43.05;;
66888;Laerm;67239;51.680;5.976;2023-02-28T01:45:58;56.32;31.71;75.48;;
66888;Laerm;67239;51.680;5.976;2023-02-28T01:48:34;38.73;31.48;52.91;;
66888;Laerm;67239;51.680;5.976;2023-02-28T01:51:18;35.93;32.35;49.50;;
66888;Laerm;67239;51.680;5.976;2023-02-28T01:53:56;37.52;34.57;52.18;;
66888;Laerm;67239;51.680;5.976;2023-02-28T01:56:34;38.10;35.07;47.87;;
66888;Laerm;67239;51.680;5.976;2023-02-28T01:59:04;38.92;35.22;46.69;;
66888;Laerm;67239;51.680;5.976;2023-02-28T02:01:31;37.80;35.09;42.26;;
66888;Laerm;67239;51.680;5.976;2023-02-28T02:04:03;39.25;33.40;54.51;;
66888;Laerm;67239;51.680;5.976;2023-02-28T02:06:39;39.43;32.13;49.87;;
66888;Laerm;67239;51.680;5.976;2023-02-28T02:09:11;36.29;32.00;53.34;;
66888;Laerm;67239;51.680;5.976;2023-02-28T02:11:42;41.66;33.02;56.45;;
66888;Laerm;67239;51.680;5.976;2023-02-28T02:17:16;36.60;33.53;39.12;;
66888;Laerm;67239;51.680;5.976;2023-02-28T02:25:28;35.56;32.85;39.71;;
66888;Laerm;67239;51.680;5.976;2023-02-28T02:34:36;41.22;32.77;53.46;;
66888;Laerm;67239;51.680;5.976;2023-02-28T02:37:40;40.79;32.26;51.11;;
66888;Laerm;67239;51.680;5.976;2023-02-28T02:40:16;34.92;31.59;44.02;;
66888;Laerm;67239;51.680;5.976;2023-02-28T02:42:52;35.08;31.79;44.31;;
66888;Laerm;67239;51.680;5.976;2023-02-28T02:45:35;35.78;31.85;43.27;;
66888;Laerm;67239;51.680;5.976;2023-02-28T02:48:09;37.00;32.71;45.48;;
66888;Laerm;67239;51.680;5.976;2023-02-28T02:50:41;59.78;34.47;78.32;;
66888;Laerm;67239;51.680;5.976;2023-02-28T02:53:13;36.29;32.52;43.85;;
66888;Laerm;67239;51.680;5.976;2023-02-28T02:55:47;36.95;32.38;45.39;;
66888;Laerm;67239;51.680;5.976;2023-02-28T02:58:25;57.59;31.69;76.38;;
66888;Laerm;67239;51.680;5.976;2023-02-28T03:00:58;36.01;31.86;42.33;;
66888;Laerm;67239;51.680;5.976;2023-02-28T03:03:29;60.94;30.92;79.65;;
66888;Laerm;67239;51.680;5.976;2023-02-28T03:06:00;36.16;30.66;44.52;;
66888;Laerm;67239;51.680;5.976;2023-02-28T03:08:31;38.25;33.35;45.35;;
66888;Laerm;67239;51.680;5.976;2023-02-28T03:11:07;59.50;32.51;80.03;;
66888;Laerm;67239;51.680;5.976;2023-02-28T03:13:52;36.31;33.44;43.42;;
66888;Laerm;67239;51.680;5.976;2023-02-28T03:25:27;37.06;32.76;45.94;;
66888;Laerm;67239;51.680;5.976;2023-02-28T03:28:17;65.22;33.11;84.54;;
66888;Laerm;67239;51.680;5.976;2023-02-28T03:30:54;36.33;33.05;46.49;;
66888;Laerm;67239;51.680;5.976;2023-02-28T03:33:31;37.32;32.82;44.86;;
66888;Laerm;67239;51.680;5.976;2023-02-28T03:36:10;39.42;33.48;50.93;;
66888;Laerm;67239;51.680;5.976;2023-02-28T03:38:52;38.63;32.47;51.31;;
66888;Laerm;67239;51.680;5.976;2023-02-28T03:41:28;35.70;32.86;40.53;;
66888;Laerm;67239;51.680;5.976;2023-02-28T03:44:25;37.66;33.27;47.53;;
66888;Laerm;67239;51.680;5.976;2023-02-28T03:47:04;52.64;34.90;84.06;;
66888;Laerm;67239;51.680;5.976;2023-02-28T03:49:45;58.91;33.94;74.60;;
66888;Laerm;67239;51.680;5.976;2023-02-28T03:52:17;64.51;34.17;84.26;;
66888;Laerm;67239;51.680;5.976;2023-02-28T03:54:55;40.15;34.10;57.27;;
66888;Laerm;67239;51.680;5.976;2023-02-28T04:00:20;55.15;33.41;73.67;;
66888;Laerm;67239;51.680;5.976;2023-02-28T04:02:48;40.12;33.40;49.39;;
66888;Laerm;67239;51.680;5.976;2023-02-28T04:05:21;41.98;35.31;55.45;;
66888;Laerm;67239;51.680;5.976;2023-02-28T04:07:48;40.36;34.55;50.22;;
66888;Laerm;67239;51.680;5.976;2023-02-28T04:10:16;54.78;35.04;75.15;;
66888;Laerm;67239;51.680;5.976;2023-02-28T04:12:43;42.83;36.71;53.05;;
66888;Laerm;67239;51.680;5.976;2023-02-28T04:15:10;63.48;38.57;79.85;;
66888;Laerm;67239;51.680;5.976;2023-02-28T04:17:38;61.32;35.59;77.95;;
66888;Laerm;67239;51.680;5.976;2023-02-28T04:20:05;59.41;35.65;74.72;;
66888;Laerm;67239;51.680;5.976;2023-02-28T04:22:36;57.46;35.31;75.29;;
66888;Laerm;67239;51.680;5.976;2023-02-28T04:25:05;63.20;33.76;79.39;;
66888;Laerm;67239;51.680;5.976;2023-02-28T04:27:33;60.58;34.78;75.23;;
66888;Laerm;67239;51.680;5.976;2023-02-28T04:30:00;41.59;36.23;49.12;;
66888;Laerm;67239;51.680;5.976;2023-02-28T04:32:27;60.89;36.84;79.44;;
66888;Laerm;67239;51.680;5.976;2023-02-28T04:34:54;64.16;37.41;83.49;;
66888;Laerm;67239;51.680;5.976;2023-02-28T04:37:21;64.73;37.05;79.46;;
66888;Laerm;67239;51.680;5.976;2023-02-28T04:39:54;69.27;38.76;86.97;;
66888;Laerm;67239;51.680;5.976;2023-02-28T04:42:21;67.69;40.47;82.24;;
66888;Laerm;67239;51.680;5.976;2023-02-28T04:44:48;69.35;43.49;85.06;;
66888;Laerm;67239;51.680;5.976;2023-02-28T04:47:15;67.08;41.01;81.38;;
66888;Laerm;67239;51.680;5.976;2023-02-28T04:49:43;62.32;34.91;76.88;;
66888;Laerm;67239;51.680;5.976;2023-02-28T04:52:10;65.13;35.75;82.25;;
66888;Laerm;67239;51.680;5.976;2023-02-28T04:54:37;68.58;37.47;88.48;;
66888;Laerm;67239;51.680;5.976;2023-02-28T04:57:05;57.83;36.15;75.07;;
66888;Laerm;67239;51.680;5.976;2023-02-28T04:59:32;63.39;35.91;80.89;;
66888;Laerm;67239;51.680;5.976;2023-02-28T05:01:59;69.33;39.19;82.68;;
66888;Laerm;67239;51.680;5.976;2023-02-28T05:04:26;69.99;44.12;83.25;;
66888;Laerm;67239;51.680;5.976;2023-02-28T05:06:53;66.98;41.28;83.26;;
66888;Laerm;67239;51.680;5.976;2023-02-28T05:09:22;65.98;38.70;80.50;;
66888;Laerm;67239;51.680;5.976;2023-02-28T05:11:49;67.39;39.40;80.67;;
66888;Laerm;67239;51.680;5.976;2023-02-28T05:14:16;63.79;38.95;80.70;;
66888;Laerm;67239;51.680;5.976;2023-02-28T05:16:43;62.43;37.54;79.41;;
66888;Laerm;67239;51.680;5.976;2023-02-28T05:19:10;67.27;36.62;80.39;;
66888;Laerm;67239;51.680;5.976;2023-02-28T05:21:40;63.46;36.23;82.02;;
66888;Laerm;67239;51.680;5.976;2023-02-28T05:24:11;61.42;39.73;77.73;;
66888;Laerm;67239;51.680;5.976;2023-02-28T05:26:42;66.42;39.27;79.62;;
66888;Laerm;67239;51.680;5.976;2023-02-28T05:29:10;66.43;40.29;79.49;;
66888;Laerm;67239;51.680;5.976;2023-02-28T05:31:37;66.70;39.57;81.01;;
66888;Laerm;67239;51.680;5.976;2023-02-28T05:34:05;68.06;45.66;81.33;;
66888;Laerm;67239;51.680;5.976;2023-02-28T05:36:33;67.72;42.06;83.33;;
66888;Laerm;67239;51.680;5.976;2023-02-28T05:39:00;62.33;41.21;79.54;;
66888;Laerm;67239;51.680;5.976;2023-02-28T05:41:27;69.63;41.42;82.61;;
66888;Laerm;67239;51.680;5.976;2023-02-28T05:43:57;68.11;44.05;80.52;;
66888;Laerm;67239;51.680;5.976;2023-02-28T05:46:24;66.23;43.32;79.61;;
66888;Laerm;67239;51.680;5.976;2023-02-28T05:48:51;69.26;49.72;87.40;;
66888;Laerm;67239;51.680;5.976;2023-02-28T05:51:21;68.84;41.43;84.90;;
66888;Laerm;67239;51.680;5.976;2023-02-28T05:53:48;67.74;45.95;79.03;;
66888;Laerm;67239;51.680;5.976;2023-02-28T05:56:16;68.91;46.69;82.53;;
66888;Laerm;67239;51.680;5.976;2023-02-28T05:58:43;67.30;40.93;84.26;;
66888;Laerm;67239;51.680;5.976;2023-02-28T06:01:33;70.23;44.86;82.63;;
66888;Laerm;67239;51.680;5.976;2023-02-28T06:04:03;72.00;50.51;85.52;;
66888;Laerm;67239;51.680;5.976;2023-02-28T06:06:31;69.76;45.49;83.95;;
66888;Laerm;67239;51.680;5.976;2023-02-28T06:09:04;68.22;42.83;84.01;;
66888;Laerm;67239;51.680;5.976;2023-02-28T06:11:32;70.41;41.70;85.82;;
66888;Laerm;67239;51.680;5.976;2023-02-28T06:14:01;70.88;43.35;86.31;;
66888;Laerm;67239;51.680;5.976;2023-02-28T06:16:32;67.04;44.25;83.40;;
66888;Laerm;67239;51.680;5.976;2023-02-28T06:19:03;69.16;44.94;82.25;;
66888;Laerm;67239;51.680;5.976;2023-02-28T06:21:31;65.56;44.69;81.45;;
66888;Laerm;67239;51.680;5.976;2023-02-28T06:23:59;68.87;48.66;80.84;;
66888;Laerm;67239;51.680;5.976;2023-02-28T06:26:26;68.25;43.26;82.94;;
66888;Laerm;67239;51.680;5.976;2023-02-28T06:28:54;68.87;44.35;84.87;;
66888;Laerm;67239;51.680;5.976;2023-02-28T06:31:21;68.58;47.24;79.61;;
66888;Laerm;67239;51.680;5.976;2023-02-28T06:33:49;69.24;46.16;80.45;;
66888;Laerm;67239;51.680;5.976;2023-02-28T06:36:17;69.96;43.72;86.20;;
66888;Laerm;67239;51.680;5.976;2023-02-28T06:38:44;69.93;46.38;82.95;;
66888;Laerm;67239;51.680;5.976;2023-02-28T06:41:11;71.05;44.51;85.63;;
66888;Laerm;67239;51.680;5.976;2023-02-28T06:43:42;70.71;48.22;83.83;;
66888;Laerm;67239;51.680;5.976;2023-02-28T06:46:13;69.04;48.43;84.14;;
66888;Laerm;67239;51.680;5.976;2023-02-28T06:48:43;68.48;46.79;80.95;;
66888;Laerm;67239;51.680;5.976;2023-02-28T06:51:19;67.53;45.57;81.02;;
66888;Laerm;67239;51.680;5.976;2023-02-28T06:53:49;69.44;46.27;82.97;;
66888;Laerm;67239;51.680;5.976;2023-02-28T06:56:18;70.98;46.17;83.79;;
66888;Laerm;67239;51.680;5.976;2023-02-28T06:58:49;69.20;42.49;83.39;;
66888;Laerm;67239;51.680;5.976;2023-02-28T07:01:16;68.05;45.48;82.90;;
66888;Laerm;67239;51.680;5.976;2023-02-28T07:03:45;70.38;49.32;83.66;;
66888;Laerm;67239;51.680;5.976;2023-02-28T07:06:12;69.91;46.35;81.42;;
66888;Laerm;67239;51.680;5.976;2023-02-28T07:08:39;71.51;47.10;82.81;;
66888;Laerm;67239;51.680;5.976;2023-02-28T07:11:07;66.07;45.21;80.14;;
66888;Laerm;67239;51.680;5.976;2023-02-28T07:13:35;69.93;45.53;82.44;;
66888;Laerm;67239;51.680;5.976;2023-02-28T07:16:06;67.17;42.89;80.91;;
66888;Laerm;67239;51.680;5.976;2023-02-28T07:18:35;70.70;46.07;82.46;;
66888;Laerm;67239;51.680;5.976;2023-02-28T07:21:09;68.02;42.07;78.87;;
66888;Laerm;67239;51.680;5.976;2023-02-28T07:23:37;65.31;43.68;78.63;;
66888;Laerm;67239;51.680;5.976;2023-02-28T07:26:13;71.76;49.40;82.52;;
66888;Laerm;67239;51.680;5.976;2023-02-28T07:28:42;69.72;46.07;81.09;;
66888;Laerm;67239;51.680;5.976;2023-02-28T07:31:11;71.65;42.26;84.75;;
66888;Laerm;67239;51.680;5.976;2023-02-28T07:33:38;71.42;52.87;83.78;;
66888;Laerm;67239;51.680;5.976;2023-02-28T07:36:15;69.44;46.83;83.20;;
66888;Laerm;67239;51.680;5.976;2023-02-28T07:38:44;66.55;42.46;80.59;;
66888;Laerm;67239;51.680;5.976;2023-02-28T07:41:16;66.94;42.70;80.07;;
66888;Laerm;67239;51.680;5.976;2023-02-28T07:43:44;68.19;41.60;83.26;;
66888;Laerm;67239;51.680;5.976;2023-02-28T07:46:15;64.47;44.11;76.34;;
66888;Laerm;67239;51.680;5.976;2023-02-28T07:48:44;69.24;40.16;81.55;;
66888;Laerm;67239;51.680;5.976;2023-02-28T07:51:11;67.60;42.68;79.94;;
66888;Laerm;67239;51.680;5.976;2023-02-28T07:53:38;71.02;43.60;89.99;;
66888;Laerm;67239;51.680;5.976;2023-02-28T07:56:06;70.37;44.00;87.96;;
66888;Laerm;67239;51.680;5.976;2023-02-28T07:58:33;69.13;42.24;80.83;;
66888;Laerm;67239;51.680;5.976;2023-02-28T08:01:10;70.89;47.03;83.82;;
66888;Laerm;67239;51.680;5.976;2023-02-28T08:03:39;69.38;45.16;81.31;;
66888;Laerm;67239;51.680;5.976;2023-02-28T08:06:14;70.06;46.62;81.94;;
66888;Laerm;67239;51.680;5.976;2023-02-28T08:08:42;69.03;42.99;85.55;;
66888;Laerm;67239;51.680;5.976;2023-02-28T08:11:08;68.24;41.17;82.71;;
66888;Laerm;67239;51.680;5.976;2023-02-28T08:13:35;68.02;44.14;79.77;;
66888;Laerm;67239;51.680;5.976;2023-02-28T08:16:03;68.92;45.51;82.22;;
66888;Laerm;67239;51.680;5.976;2023-02-28T08:18:30;68.52;43.19;78.13;;
66888;Laerm;67239;51.680;5.976;2023-02-28T08:20:58;68.68;44.54;81.95;;
66888;Laerm;67239;51.680;5.976;2023-02-28T08:23:26;70.27;46.57;86.10;;
66888;Laerm;67239;51.680;5.976;2023-02-28T08:25:55;68.31;41.83;84.21;;
66888;Laerm;67239;51.680;5.976;2023-02-28T08:28:23;70.56;43.34;82.45;;
66888;Laerm;67239;51.680;5.976;2023-02-28T08:30:53;68.63;42.25;80.60;;
66888;Laerm;67239;51.680;5.976;2023-02-28T08:33:23;62.98;41.30;77.63;;
66888;Laerm;67239;51.680;5.976;2023-02-28T08:35:55;69.12;46.97;85.81;;
66888;Laerm;67239;51.680;5.976;2023-02-28T08:38:23;70.71;44.66;84.96;;
66888;Laerm;67239;51.680;5.976;2023-02-28T08:41:03;67.11;41.16;79.78;;
66888;Laerm;67239;51.680;5.976;2023-02-28T08:43:30;71.95;46.26;82.21;;
66888;Laerm;67239;51.680;5.976;2023-02-28T08:45:57;67.99;38.79;82.20;;
66888;Laerm;67239;51.680;5.976;2023-02-28T08:48:27;67.94;38.83;83.89;;
66888;Laerm;67239;51.680;5.976;2023-02-28T08:50:59;67.64;38.44;81.43;;
66888;Laerm;67239;51.680;5.976;2023-02-28T08:53:33;69.85;45.02;87.65;;
66888;Laerm;67239;51.680;5.976;2023-02-28T08:56:10;70.77;42.76;85.28;;
66888;Laerm;67239;51.680;5.976;2023-02-28T08:58:39;69.34;41.08;82.02;;
66888;Laerm;67239;51.680;5.976;2023-02-28T09:01:15;67.09;39.53;80.26;;
66888;Laerm;67239;51.680;5.976;2023-02-28T09:03:44;64.51;37.70;77.49;;
66888;Laerm;67239;51.680;5.976;2023-02-28T09:06:14;68.50;41.24;81.82;;
66888;Laerm;67239;51.680;5.976;2023-02-28T09:08:43;68.06;39.43;83.29;;
66888;Laerm;67239;51.680;5.976;2023-02-28T09:11:11;69.98;46.34;80.87;;
66888;Laerm;67239;51.680;5.976;2023-02-28T09:13:38;70.32;44.50;81.81;;
66888;Laerm;67239;51.680;5.976;2023-02-28T09:16:10;64.99;38.43;81.91;;
66888;Laerm;67239;51.680;5.976;2023-02-28T09:18:39;69.47;39.69;83.19;;
66888;Laerm;67239;51.680;5.976;2023-02-28T09:21:10;66.78;40.56;78.49;;
66888;Laerm;67239;51.680;5.976;2023-02-28T09:23:41;68.54;42.39;81.64;;
66888;Laerm;67239;51.680;5.976;2023-02-28T09:26:18;67.43;43.37;80.10;;
66888;Laerm;67239;51.680;5.976;2023-02-28T09:28:46;67.45;39.11;82.35;;
66888;Laerm;67239;51.680;5.976;2023-02-28T09:31:21;70.05;42.18;82.16;;
66888;Laerm;67239;51.680;5.976;2023-02-28T09:33:51;69.38;39.91;83.36;;
66888;Laerm;67239;51.680;5.976;2023-02-28T09:36:20;65.13;38.77;78.51;;
66888;Laerm;67239;51.680;5.976;2023-02-28T09:38:50;70.50;42.79;87.03;;
66888;Laerm;67239;51.680;5.976;2023-02-28T09:41:24;68.07;39.57;84.91;;
66888;Laerm;67239;51.680;5.976;2023-02-28T09:43:56;68.73;42.45;82.99;;
66888;Laerm;67239;51.680;5.976;2023-02-28T09:46:37;70.24;41.21;82.44;;
66888;Laerm;67239;51.680;5.976;2023-02-28T09:49:23;67.17;41.01;82.54;;
66888;Laerm;67239;51.680;5.976;2023-02-28T09:52:02;65.72;40.47;82.77;;
66888;Laerm;67239;51.680;5.976;2023-02-28T09:54:32;70.63;40.00;84.63;;
66888;Laerm;67239;51.680;5.976;2023-02-28T09:57:13;69.16;40.87;82.34;;
66888;Laerm;67239;51.680;5.976;2023-02-28T10:03:10;67.89;44.28;80.15;;
66888;Laerm;67239;51.680;5.976;2023-02-28T10:05:52;66.35;38.75;79.01;;
66888;Laerm;67239;51.680;5.976;2023-02-28T10:08:28;70.54;42.96;81.63;;
66888;Laerm;67239;51.680;5.976;2023-02-28T10:11:01;66.13;38.05;77.24;;
66888;Laerm;67239;51.680;5.976;2023-02-28T10:16:25;66.98;43.27;84.87;;
66888;Laerm;67239;51.680;5.976;2023-02-28T10:19:03;69.35;39.72;80.97;;
66888;Laerm;67239;51.680;5.976;2023-02-28T10:21:46;69.51;41.04;80.70;;
66888;Laerm;67239;51.680;5.976;2023-02-28T10:24:52;67.55;39.21;83.09;;
66888;Laerm;67239;51.680;5.976;2023-02-28T10:27:28;64.62;39.92;78.92;;
66888;Laerm;67239;51.680;5.976;2023-02-28T10:29:58;68.23;40.98;80.24;;
66888;Laerm;67239;51.680;5.976;2023-02-28T10:32:32;67.43;42.01;79.94;;
66888;Laerm;67239;51.680;5.976;2023-02-28T10:37:45;64.83;42.66;82.10;;
66888;Laerm;67239;51.680;5.976;2023-02-28T10:46:21;68.10;42.99;81.30;;
66888;Laerm;67239;51.680;5.976;2023-02-28T10:49:06;67.14;43.39;80.39;;
66888;Laerm;67239;51.680;5.976;2023-02-28T10:51:40;68.53;39.96;83.94;;
66888;Laerm;67239;51.680;5.976;2023-02-28T10:54:43;69.38;42.37;80.72;;
66888;Laerm;67239;51.680;5.976;2023-02-28T10:57:20;69.23;46.08;80.95;;
66888;Laerm;67239;51.680;5.976;2023-02-28T10:59:52;69.61;43.87;83.28;;
66888;Laerm;67239;51.680;5.976;2023-02-28T11:02:35;66.85;39.69;81.16;;
66888;Laerm;67239;51.680;5.976;2023-02-28T11:05:34;70.36;48.93;80.99;;
66888;Laerm;67239;51.680;5.976;2023-02-28T11:10:48;69.49;43.12;82.04;;
66888;Laerm;67239;51.680;5.976;2023-02-28T11:13:26;68.71;45.13;81.06;;
66888;Laerm;67239;51.680;5.976;2023-02-28T11:16:01;65.42;38.21;80.25;;
66888;Laerm;67239;51.680;5.976;2023-02-28T11:21:04;69.73;44.25;82.31;;
66888;Laerm;67239;51.680;5.976;2023-02-28T11:23:35;68.21;42.01;82.21;;
66888;Laerm;67239;51.680;5.976;2023-02-28T11:26:04;68.29;42.28;84.21;;
66888;Laerm;67239;51.680;5.976;2023-02-28T11:28:42;64.73;39.00;77.16;;
66888;Laerm;67239;51.680;5.976;2023-02-28T11:33:53;66.64;42.52;78.61;;
66888;Laerm;67239;51.680;5.976;2023-02-28T11:36:25;70.30;46.08;84.04;;
66888;Laerm;67239;51.680;5.976;2023-02-28T11:38:58;69.12;43.32;81.56;;
66888;Laerm;67239;51.680;5.976;2023-02-28T11:53:22;71.76;41.65;87.27;;
66888;Laerm;67239;51.680;5.976;2023-02-28T11:56:08;70.13;38.03;85.44;;
66888;Laerm;67239;51.680;5.976;2023-02-28T11:59:10;69.02;43.37;86.83;;
66888;Laerm;67239;51.680;5.976;2023-02-28T12:07:49;68.91;42.14;81.43;;
66888;Laerm;67239;51.680;5.976;2023-02-28T12:10:30;66.52;42.27;79.84;;
66888;Laerm;67239;51.680;5.976;2023-02-28T12:13:33;69.35;39.88;82.12;;
66888;Laerm;67239;51.680;5.976;2023-02-28T12:16:45;69.74;42.78;81.12;;
66888;Laerm;67239;51.680;5.976;2023-02-28T12:19:22;68.76;43.59;85.18;;
66888;Laerm;67239;51.680;5.976;2023-02-28T12:27:43;70.61;47.67;81.11;;
66888;Laerm;67239;51.680;5.976;2023-02-28T12:30:27;69.69;45.38;81.22;;
66888;Laerm;67239;51.680;5.976;2023-02-28T12:33:19;69.61;46.48;80.86;;
66888;Laerm;67239;51.680;5.976;2023-02-28T12:35:56;70.51;42.97;84.97;;
66888;Laerm;67239;51.680;5.976;2023-02-28T12:38:37;68.71;40.94;83.43;;
66888;Laerm;67239;51.680;5.976;2023-02-28T12:41:14;70.55;44.29;81.65;;
66888;Laerm;67239;51.680;5.976;2023-02-28T12:43:51;68.04;40.87;83.24;;
66888;Laerm;67239;51.680;5.976;2023-02-28T12:46:27;68.75;44.04;81.82;;
66888;Laerm;67239;51.680;5.976;2023-02-28T12:48:59;68.89;45.20;82.24;;
66888;Laerm;67239;51.680;5.976;2023-02-28T12:51:28;69.88;48.68;80.31;;
66888;Laerm;67239;51.680;5.976;2023-02-28T12:54:36;70.51;44.61;83.45;;
66888;Laerm;67239;51.680;5.976;2023-02-28T12:57:19;70.54;45.19;83.07;;
66888;Laerm;67239;51.680;5.976;2023-02-28T12:59:55;69.29;44.73;79.62;;
66888;Laerm;67239;51.680;5.976;2023-02-28T13:06:08;72.44;42.44;82.48;;
66888;Laerm;67239;51.680;5.976;2023-02-28T13:09:01;69.90;46.47;84.96;;
66888;Laerm;67239;51.680;5.976;2023-02-28T13:11:51;71.22;44.13;84.00;;
66888;Laerm;67239;51.680;5.976;2023-02-28T13:14:23;67.02;41.94;82.75;;
66888;Laerm;67239;51.680;5.976;2023-02-28T13:19:44;70.34;44.06;86.09;;
66888;Laerm;67239;51.680;5.976;2023-02-28T13:22:37;69.14;42.82;83.69;;
66888;Laerm;67239;51.680;5.976;2023-02-28T13:27:54;69.55;43.86;81.67;;
66888;Laerm;67239;51.680;5.976;2023-02-28T13:33:36;69.17;41.47;81.59;;
66888;Laerm;67239;51.680;5.976;2023-02-28T13:38:44;70.46;43.90;84.29;;
66888;Laerm;67239;51.680;5.976;2023-02-28T13:49:32;69.93;47.45;81.91;;
66888;Laerm;67239;51.680;5.976;2023-02-28T13:52:10;67.48;47.47;81.36;;
66888;Laerm;67239;51.680;5.976;2023-02-28T13:55:29;67.62;45.00;79.40;;
66888;Laerm;67239;51.680;5.976;2023-02-28T14:04:19;69.93;43.87;80.73;;
66888;Laerm;67239;51.680;5.976;2023-02-28T14:06:59;68.08;44.11;82.53;;
66888;Laerm;67239;51.680;5.976;2023-02-28T14:09:33;71.44;47.51;84.25;;
66888;Laerm;67239;51.680;5.976;2023-02-28T14:18:03;69.43;44.29;82.27;;
66888;Laerm;67239;51.680;5.976;2023-02-28T14:20:33;67.78;42.27;83.34;;
66888;Laerm;67239;51.680;5.976;2023-02-28T14:26:29;69.56;44.75;80.90;;
66888;Laerm;67239;51.680;5.976;2023-02-28T14:29:26;69.88;41.02;82.94;;
66888;Laerm;67239;51.680;5.976;2023-02-28T14:32:33;69.25;42.97;83.70;;
66888;Laerm;67239;51.680;5.976;2023-02-28T14:37:56;69.46;47.25;81.51;;
66888;Laerm;67239;51.680;5.976;2023-02-28T14:40:33;69.30;44.27;80.79;;
66888;Laerm;67239;51.680;5.976;2023-02-28T14:43:05;68.73;43.65;82.41;;
66888;Laerm;67239;51.680;5.976;2023-02-28T14:45:35;69.26;40.25;85.01;;
66888;Laerm;67239;51.680;5.976;2023-02-28T14:48:09;71.09;48.26;82.16;;
66888;Laerm;67239;51.680;5.976;2023-02-28T14:50:37;68.53;40.58;84.07;;
66888;Laerm;67239;51.680;5.976;2023-02-28T14:53:12;69.80;46.01;83.19;;
66888;Laerm;67239;51.680;5.976;2023-02-28T14:55:46;67.18;44.82;79.80;;
66888;Laerm;67239;51.680;5.976;2023-02-28T14:58:23;65.08;46.39;77.88;;
66888;Laerm;67239;51.680;5.976;2023-02-28T15:00:54;71.12;50.67;81.72;;
66888;Laerm;67239;51.680;5.976;2023-02-28T15:03:39;70.44;47.74;81.94;;
66888;Laerm;67239;51.680;5.976;2023-02-28T15:06:15;70.38;46.11;82.87;;
66888;Laerm;67239;51.680;5.976;2023-02-28T15:08:45;70.08;47.24;80.99;;
66888;Laerm;67239;51.680;5.976;2023-02-28T15:11:19;69.80;45.36;84.24;;
66888;Laerm;67239;51.680;5.976;2023-02-28T15:13:53;70.26;46.16;83.63;;
66888;Laerm;67239;51.680;5.976;2023-02-28T15:16:29;67.96;44.79;79.27;;
66888;Laerm;67239;51.680;5.976;2023-02-28T15:21:38;70.81;48.22;85.46;;
66888;Laerm;67239;51.680;5.976;2023-02-28T15:24:37;68.69;42.80;83.22;;
66888;Laerm;67239;51.680;5.976;2023-02-28T15:27:12;70.50;44.54;82.49;;
66888;Laerm;67239;51.680;5.976;2023-02-28T15:29:48;69.32;45.61;82.48;;
66888;Laerm;67239;51.680;5.976;2023-02-28T15:32:28;69.24;46.73;79.93;;
66888;Laerm;67239;51.680;5.976;2023-02-28T15:34:58;70.00;52.85;80.63;;
66888;Laerm;67239;51.680;5.976;2023-02-28T15:40:26;70.34;44.24;85.29;;
66888;Laerm;67239;51.680;5.976;2023-02-28T15:45:40;69.65;44.10;80.03;;
66888;Laerm;67239;51.680;5.976;2023-02-28T15:50:54;69.69;43.65;82.27;;
66888;Laerm;67239;51.680;5.976;2023-02-28T15:53:36;68.89;44.32;82.06;;
66888;Laerm;67239;51.680;5.976;2023-02-28T15:56:32;68.15;43.63;80.34;;
66888;Laerm;67239;51.680;5.976;2023-02-28T15:59:06;70.67;42.62;82.16;;
66888;Laerm;67239;51.680;5.976;2023-02-28T16:01:38;70.08;45.52;84.08;;
66888;Laerm;67239;51.680;5.976;2023-02-28T16:04:17;71.16;46.04;84.06;;
66888;Laerm;67239;51.680;5.976;2023-02-28T16:07:04;69.34;45.35;81.88;;
66888;Laerm;67239;51.680;5.976;2023-02-28T16:09:32;69.75;49.29;81.57;;
66888;Laerm;67239;51.680;5.976;2023-02-28T16:12:03;69.82;47.37;84.00;;
66888;Laerm;67239;51.680;5.976;2023-02-28T16:14:31;71.59;44.36;83.92;;
66888;Laerm;67239;51.680;5.976;2023-02-28T16:17:07;70.30;44.53;81.20;;
66888;Laerm;67239;51.680;5.976;2023-02-28T16:19:37;68.70;43.78;82.12;;
66888;Laerm;67239;51.680;5.976;2023-02-28T16:22:04;69.86;46.70;82.36;;
66888;Laerm;67239;51.680;5.976;2023-02-28T16:24:32;69.60;45.46;83.36;;